Time;durP1;ratioP1;P1;durP2;ratioP2;P2;SDS_P1;SDS_P2;PMS_P1;PMS_P2;Temp;Humidity;BMP_temperature;BMP_pressure;BME280_temperature;BME280_humidity;BME280_pressure;Samples;Min_cycle;Max_cycle;Signal;HPM_P1;HPM_P2
2023/04/23 00:01:34;;;;;;;5.78;3.40;;;;;;;;;;5039751;28;20390;-58
2023/04/23 00:04:01;;;;;;;7.75;3.63;;;;;;;;;;5038222;28;20483;-58
2023/04/23 00:06:29;;;;;;;5.32;3.72;;;;;;;;;;5036721;28;20045;-58
2023/04/23 00:08:58;;;;;;;7.07;3.75;;;;;;;;;;5043681;28;20043;-58
2023/04/23 00:11:25;;;;;;;5.93;3.63;;;;;;;;;;5043755;28;20391;-58
2023/04/23 00:13:51;;;;;;;6.95;3.20;;;;;;;;;;5048038;28;20048;-58
2023/04/23 00:16:18;;;;;;;9.45;3.72;;;;;;;;;;5035832;28;20049;-58
2023/04/23 00:18:44;;;;;;;7.45;4.38;;;;;;;;;;5043982;28;20032;-58
2023/04/23 00:21:11;;;;;;;7.05;3.50;;;;;;;;;;5036541;28;20060;-58
2023/04/23 00:23:38;;;;;;;7.57;3.40;;;;;;;;;;5044075;28;20033;-58
2023/04/23 00:26:04;;;;;;;7.03;3.58;;;;;;;;;;5039168;28;20045;-58
2023/04/23 00:28:30;;;;;;;5.40;3.55;;;;;;;;;;5046221;28;20036;-58
2023/04/23 00:30:57;;;;;;;7.85;3.55;;;;;;;;;;5041669;28;20052;-58
2023/04/23 00:33:23;;;;;;;5.68;3.10;;;;;;;;;;5036829;28;20033;-58
2023/04/23 00:35:49;;;;;;;10.68;4.53;;;;;;;;;;5042062;28;20322;-58
2023/04/23 00:38:15;;;;;;;6.78;3.65;;;;;;;;;;5040975;28;20037;-57
2023/04/23 00:40:41;;;;;;;5.10;3.65;;;;;;;;;;5036698;28;20049;-58
2023/04/23 00:43:08;;;;;;;5.75;4.00;;;;;;;;;;5032714;28;20400;-58
2023/04/23 00:45:34;;;;;;;5.88;3.33;;;;;;;;;;5032617;28;20048;-58
2023/04/23 00:48:02;;;;;;;7.60;3.55;;;;;;;;;;5030442;28;20454;-58
2023/04/23 00:50:28;;;;;;;5.97;3.25;;;;;;;;;;5034873;28;20037;-58
2023/04/23 00:52:54;;;;;;;6.57;3.78;;;;;;;;;;5033225;28;20045;-58
2023/04/23 00:55:21;;;;;;;9.68;3.58;;;;;;;;;;5032271;28;20049;-58
2023/04/23 00:57:47;;;;;;;6.97;3.33;;;;;;;;;;5036951;28;20030;-58
2023/04/23 01:00:14;;;;;;;7.60;3.15;;;;;;;;;;5032151;28;20040;-57
2023/04/23 01:02:42;;;;;;;5.95;3.10;;;;;;;;;;5036296;28;20495;-58
2023/04/23 01:05:10;;;;;;;6.85;3.65;;;;;;;;;;5040057;28;20038;-58
2023/04/23 01:07:37;;;;;;;5.47;3.05;;;;;;;;;;5041244;28;20053;-58
2023/04/23 01:10:04;;;;;;;6.43;3.25;;;;;;;;;;5035865;28;20044;-58
2023/04/23 01:12:30;;;;;;;6.45;3.40;;;;;;;;;;5037786;28;20049;-58
2023/04/23 01:14:57;;;;;;;7.10;3.90;;;;;;;;;;5039074;28;20029;-58
2023/04/23 01:17:23;;;;;;;9.30;3.22;;;;;;;;;;5036904;28;20052;-58
2023/04/23 01:19:52;;;;;;;5.53;3.35;;;;;;;;;;5041052;28;20039;-58
2023/04/23 01:22:19;;;;;;;7.53;3.28;;;;;;;;;;5039161;28;20033;-59
2023/04/23 01:24:47;;;;;;;5.60;3.35;;;;;;;;;;5037386;28;20041;-58
2023/04/23 01:27:14;;;;;;;4.63;2.90;;;;;;;;;;5041714;28;20037;-59
2023/04/23 01:29:41;;;;;;;6.28;3.58;;;;;;;;;;5037107;28;20037;-60
2023/04/23 01:32:07;;;;;;;7.93;3.08;;;;;;;;;;5045665;28;20049;-59
2023/04/23 01:34:38;;;;;;;5.03;3.03;;;;;;;;;;5039663;28;20112;-59
2023/04/23 01:37:04;;;;;;;6.78;3.60;;;;;;;;;;5033155;28;20033;-59
2023/04/23 01:39:30;;;;;;;5.55;3.35;;;;;;;;;;5042630;28;20033;-60
2023/04/23 01:41:57;;;;;;;6.10;3.05;;;;;;;;;;5035312;28;20042;-60
2023/04/23 01:44:23;;;;;;;5.30;3.20;;;;;;;;;;5041061;28;20037;-57
2023/04/23 01:46:49;;;;;;;5.85;3.90;;;;;;;;;;5043284;28;20828;-58
2023/04/23 01:49:16;;;;;;;6.95;3.33;;;;;;;;;;5032565;28;20052;-58
2023/04/23 01:51:42;;;;;;;5.30;2.90;;;;;;;;;;5038822;28;20049;-59
2023/04/23 01:54:08;;;;;;;3.85;2.92;;;;;;;;;;5041827;28;20426;-58
2023/04/23 01:56:35;;;;;;;8.25;2.95;;;;;;;;;;5037123;28;20045;-58
2023/04/23 01:59:01;;;;;;;2.90;2.42;;;;;;;;;;5043010;28;20056;-58
2023/04/23 02:01:42;;;;;;;4.28;3.00;;;;;;;;;;5040983;28;20648;-58
2023/04/23 02:04:08;;;;;;;4.55;2.80;;;;;;;;;;5032876;28;20041;-58
2023/04/23 02:06:35;;;;;;;3.88;2.85;;;;;;;;;;5038650;28;20040;-58
2023/04/23 02:09:01;;;;;;;3.28;2.50;;;;;;;;;;5038778;28;20052;-58
2023/04/23 02:11:27;;;;;;;3.00;2.58;;;;;;;;;;5040772;28;20048;-58
2023/04/23 02:13:53;;;;;;;4.88;2.53;;;;;;;;;;5036704;28;20037;-58
2023/04/23 02:16:19;;;;;;;3.22;2.20;;;;;;;;;;5040152;28;20036;-58
2023/04/23 02:18:45;;;;;;;3.33;2.50;;;;;;;;;;5038329;28;20498;-58
2023/04/23 02:21:12;;;;;;;4.47;2.75;;;;;;;;;;5033999;28;20037;-58
2023/04/23 02:23:38;;;;;;;3.75;2.70;;;;;;;;;;5033432;28;20517;-59
2023/04/23 02:26:04;;;;;;;5.80;2.83;;;;;;;;;;5032275;28;20053;-58
2023/04/23 02:28:31;;;;;;;5.18;2.65;;;;;;;;;;5043309;28;20036;-58
2023/04/23 02:30:57;;;;;;;4.38;2.55;;;;;;;;;;5041124;28;20045;-58
2023/04/23 02:33:24;;;;;;;5.95;2.85;;;;;;;;;;5041169;28;20361;-58
2023/04/23 02:35:50;;;;;;;5.55;2.60;;;;;;;;;;5031481;28;20519;-58
2023/04/23 02:38:16;;;;;;;3.95;2.53;;;;;;;;;;5039116;28;20060;-59
2023/04/23 02:40:43;;;;;;;2.53;2.33;;;;;;;;;;5039780;28;20053;-59
2023/04/23 02:43:09;;;;;;;4.13;2.45;;;;;;;;;;5043033;28;20128;-59
2023/04/23 02:45:35;;;;;;;3.50;2.47;;;;;;;;;;5035053;28;20414;-59
2023/04/23 02:48:01;;;;;;;5.75;2.60;;;;;;;;;;5032920;28;20049;-58
2023/04/23 02:50:27;;;;;;;3.72;2.65;;;;;;;;;;5026644;28;20037;-58
2023/04/23 02:52:53;;;;;;;4.03;2.78;;;;;;;;;;5033604;28;20521;-58
2023/04/23 02:55:20;;;;;;;3.33;2.35;;;;;;;;;;5035831;28;20048;-58
2023/04/23 02:57:46;;;;;;;5.50;3.13;;;;;;;;;;5030701;28;20053;-58
2023/04/23 03:00:14;;;;;;;3.30;2.70;;;;;;;;;;5034187;28;20415;-58
2023/04/23 03:02:42;;;;;;;;;;;;;;;;;;5037987;28;20040;-59
2023/04/23 03:05:08;;;;;;;4.05;2.42;;;;;;;;;;5040951;28;19925;-59
2023/04/23 03:07:34;;;;;;;3.75;2.30;;;;;;;;;;5040833;28;20041;-58
2023/04/23 03:10:00;;;;;;;2.92;2.20;;;;;;;;;;5042044;28;20041;-58
2023/04/23 03:12:26;;;;;;;2.60;2.30;;;;;;;;;;5043940;28;20033;-58
2023/04/23 03:14:53;;;;;;;5.53;2.70;;;;;;;;;;5046140;28;20398;-58
2023/04/23 03:17:20;;;;;;;3.05;2.42;;;;;;;;;;5043406;28;20406;-59
2023/04/23 03:19:46;;;;;;;4.13;2.70;;;;;;;;;;5041477;28;20436;-59
2023/04/23 03:22:13;;;;;;;4.03;2.60;;;;;;;;;;5041312;28;20522;-59
2023/04/23 03:24:39;;;;;;;4.55;2.67;;;;;;;;;;5041804;28;20041;-59
2023/04/23 03:27:05;;;;;;;3.25;2.35;;;;;;;;;;5039149;28;20045;-60
2023/04/23 03:29:31;;;;;;;3.65;2.35;;;;;;;;;;5041651;28;20403;-59
2023/04/23 03:31:58;;;;;;;2.33;2.10;;;;;;;;;;5044527;28;20048;-58
2023/04/23 03:34:24;;;;;;;3.22;2.30;;;;;;;;;;5042122;28;20372;-59
2023/04/23 03:36:50;;;;;;;2.90;2.20;;;;;;;;;;5039581;28;20032;-58
2023/04/23 03:39:17;;;;;;;2.38;2.05;;;;;;;;;;5035771;28;20052;-59
2023/04/23 03:41:52;;;;;;;3.72;2.22;;;;;;;;;;5012015;28;20078;-59
2023/04/23 03:44:22;;;;;;;4.00;2.20;;;;;;;;;;5033284;28;20053;-58
2023/04/23 03:46:49;;;;;;;3.28;2.60;;;;;;;;;;5030522;28;20037;-58
2023/04/23 03:49:16;;;;;;;3.05;2.72;;;;;;;;;;5033187;28;20053;-58
2023/04/23 03:51:43;;;;;;;4.65;2.60;;;;;;;;;;5036879;28;20598;-58
2023/04/23 03:54:09;;;;;;;3.72;2.75;;;;;;;;;;5037870;28;20033;-58
2023/04/23 03:56:56;;;;;;;3.30;2.70;;;;;;;;;;5040794;28;20056;-59
2023/04/23 03:59:26;;;;;;;3.90;2.60;;;;;;;;;;5042716;28;20034;-59
2023/04/23 04:01:55;;;;;;;5.32;3.00;;;;;;;;;;5036184;28;20044;-59
2023/04/23 04:04:21;;;;;;;2.95;2.50;;;;;;;;;;5040813;28;20052;-59
2023/04/23 04:06:49;;;;;;;3.38;3.00;;;;;;;;;;5037651;28;20045;-59
2023/04/23 04:09:16;;;;;;;2.80;2.50;;;;;;;;;;5034993;28;20033;-59
2023/04/23 04:11:42;;;;;;;5.63;2.83;;;;;;;;;;5040859;28;20029;-59
2023/04/23 04:14:08;;;;;;;4.05;2.95;;;;;;;;;;5041501;28;20391;-59
2023/04/23 04:16:34;;;;;;;3.42;3.05;;;;;;;;;;5046256;28;20029;-58
2023/04/23 04:19:00;;;;;;;2.90;2.55;;;;;;;;;;5039916;28;20517;-59
2023/04/23 04:21:27;;;;;;;6.60;2.63;;;;;;;;;;5035816;28;20399;-59
2023/04/23 04:23:53;;;;;;;3.20;2.60;;;;;;;;;;5038610;28;20040;-59
2023/04/23 04:26:19;;;;;;;4.47;2.63;;;;;;;;;;5038952;28;20041;-58
2023/04/23 04:28:45;;;;;;;2.88;2.63;;;;;;;;;;5038170;28;20037;-58
2023/04/23 04:31:13;;;;;;;3.17;2.50;;;;;;;;;;5035928;28;20045;-57
2023/04/23 04:33:39;;;;;;;4.50;2.40;;;;;;;;;;5037103;28;20044;-58
2023/04/23 04:36:08;;;;;;;2.72;2.40;;;;;;;;;;5037143;28;20510;-59
2023/04/23 04:38:36;;;;;;;3.53;2.57;;;;;;;;;;5041481;28;20056;-58
2023/04/23 04:41:02;;;;;;;2.08;1.90;;;;;;;;;;5035492;28;20077;-58
2023/04/23 04:43:28;;;;;;;4.63;3.20;;;;;;;;;;5032736;28;20371;-57
2023/04/23 04:45:54;;;;;;;4.38;3.17;;;;;;;;;;5032572;28;20037;-58
2023/04/23 04:48:21;;;;;;;3.33;2.90;;;;;;;;;;5043793;28;20029;-59
2023/04/23 04:50:47;;;;;;;2.40;2.20;;;;;;;;;;5038961;28;20048;-58
2023/04/23 04:53:13;;;;;;;2.50;2.20;;;;;;;;;;5038093;28;20040;-58
2023/04/23 04:55:40;;;;;;;2.58;2.17;;;;;;;;;;5033823;28;20065;-58
2023/04/23 04:58:06;;;;;;;2.65;2.03;;;;;;;;;;5032962;28;20045;-58
2023/04/23 05:00:33;;;;;;;2.58;1.80;;;;;;;;;;5038284;28;20041;-58
2023/04/23 05:02:59;;;;;;;3.58;2.00;;;;;;;;;;5037317;28;20049;-58
2023/04/23 05:05:26;;;;;;;2.25;1.50;;;;;;;;;;5043449;28;20048;-58
2023/04/23 05:07:53;;;;;;;1.60;1.50;;;;;;;;;;5041121;28;20072;-59
2023/04/23 05:10:20;;;;;;;1.90;1.50;;;;;;;;;;5035510;28;20398;-59
2023/04/23 05:12:46;;;;;;;1.58;1.48;;;;;;;;;;5042211;28;20045;-59
2023/04/23 05:15:13;;;;;;;3.83;1.80;;;;;;;;;;5038518;28;20052;-59
2023/04/23 05:17:40;;;;;;;2.05;1.92;;;;;;;;;;5034201;28;20033;-59
2023/04/23 05:20:09;;;;;;;3.33;2.40;;;;;;;;;;5039556;28;20637;-59
2023/04/23 05:22:42;;;;;;;5.32;3.00;;;;;;;;;;5038709;28;20037;-59
2023/04/23 05:25:10;;;;;;;3.50;2.47;;;;;;;;;;5042427;28;20057;-58
2023/04/23 05:27:37;;;;;;;2.33;1.67;;;;;;;;;;5039677;28;20041;-59
2023/04/23 05:30:05;;;;;;;1.38;1.27;;;;;;;;;;5039213;28;20049;-59
2023/04/23 05:32:32;;;;;;;1.85;1.23;;;;;;;;;;5044030;28;20032;-59
2023/04/23 05:35:01;;;;;;;1.50;1.40;;;;;;;;;;5035872;28;20042;-58
2023/04/23 05:37:29;;;;;;;3.28;1.40;;;;;;;;;;5036440;28;20394;-58
2023/04/23 05:39:56;;;;;;;3.03;1.83;;;;;;;;;;5034059;28;20415;-58
2023/04/23 05:42:22;;;;;;;1.20;1.10;;;;;;;;;;5033746;28;20040;-58
2023/04/23 05:44:48;;;;;;;1.38;1.25;;;;;;;;;;5031606;28;20041;-57
2023/04/23 05:47:14;;;;;;;1.45;1.10;;;;;;;;;;5028471;28;20041;-59
2023/04/23 05:49:40;;;;;;;3.92;1.48;;;;;;;;;;5031861;28;20040;-58
2023/04/23 05:52:07;;;;;;;1.90;1.50;;;;;;;;;;5032507;28;20431;-58
2023/04/23 05:54:33;;;;;;;2.58;2.00;;;;;;;;;;5045082;28;21483;-58
2023/04/23 05:57:00;;;;;;;3.17;2.22;;;;;;;;;;5037141;28;20606;-58
2023/04/23 05:59:26;;;;;;;3.25;1.83;;;;;;;;;;5040330;28;20521;-58
2023/04/23 06:01:52;;;;;;;1.50;1.40;;;;;;;;;;5037848;28;20040;-58
2023/04/23 06:04:19;;;;;;;2.92;1.77;;;;;;;;;;5039800;28;20029;-58
2023/04/23 06:06:45;;;;;;;3.85;2.05;;;;;;;;;;5038551;28;20045;-58
2023/04/23 06:09:11;;;;;;;4.10;2.63;;;;;;;;;;5040119;28;20093;-58
2023/04/23 06:11:37;;;;;;;1.45;1.35;;;;;;;;;;5042049;28;20036;-58
2023/04/23 06:14:04;;;;;;;1.90;1.55;;;;;;;;;;5038286;28;20292;-57
2023/04/23 06:16:30;;;;;;;1.30;1.20;;;;;;;;;;5040248;28;20414;-59
2023/04/23 06:18:56;;;;;;;1.73;1.17;;;;;;;;;;5036243;28;20049;-59
2023/04/23 06:21:23;;;;;;;1.38;1.27;;;;;;;;;;5039379;28;20044;-59
2023/04/23 06:23:49;;;;;;;1.27;1.13;;;;;;;;;;5040745;28;20100;-59
2023/04/23 06:26:16;;;;;;;1.23;1.13;;;;;;;;;;5043806;28;20158;-58
2023/04/23 06:28:45;;;;;;;2.55;1.60;;;;;;;;;;5042333;28;20041;-58
2023/04/23 06:31:27;;;;;;;2.58;1.83;;;;;;;;;;5035815;28;20041;-58
2023/04/23 06:33:53;;;;;;;1.90;1.67;;;;;;;;;;5040446;28;20037;-59
2023/04/23 06:36:19;;;;;;;1.33;1.23;;;;;;;;;;5034649;28;20034;-58
2023/04/23 06:38:45;;;;;;;1.67;1.00;;;;;;;;;;5035885;28;20046;-58
2023/04/23 06:41:14;;;;;;;2.38;1.15;;;;;;;;;;5031747;28;20033;-58
2023/04/23 06:43:41;;;;;;;1.30;1.20;;;;;;;;;;5033167;28;20041;-58
2023/04/23 06:46:20;;;;;;;2.38;1.15;;;;;;;;;;5034270;28;20037;-58
2023/04/23 06:48:46;;;;;;;1.60;1.38;;;;;;;;;;5034853;28;20041;-58
2023/04/23 06:51:12;;;;;;;1.27;1.17;;;;;;;;;;5037909;28;20402;-58
2023/04/23 06:53:38;;;;;;;1.67;1.10;;;;;;;;;;5037858;28;20033;-58
2023/04/23 06:56:05;;;;;;;1.38;1.08;;;;;;;;;;5044744;28;20037;-58
2023/04/23 06:58:31;;;;;;;1.42;1.33;;;;;;;;;;5041771;28;20072;-58
2023/04/23 07:01:03;;;;;;;2.70;1.20;;;;;;;;;;5039606;28;20041;-57
2023/04/23 07:03:31;;;;;;;4.53;3.17;;;;;;;;;;5042121;28;20101;-57
2023/04/23 07:05:57;;;;;;;4.78;2.85;;;;;;;;;;5036055;28;20049;-58
2023/04/23 07:08:23;;;;;;;1.85;1.40;;;;;;;;;;5038402;28;20061;-60
2023/04/23 07:10:50;;;;;;;1.75;1.38;;;;;;;;;;5041890;28;20049;-58
2023/04/23 07:13:16;;;;;;;2.67;2.13;;;;;;;;;;5039390;28;20034;-58
2023/04/23 07:15:42;;;;;;;1.90;1.52;;;;;;;;;;5034128;28;20060;-59
2023/04/23 07:18:09;;;;;;;1.98;1.65;;;;;;;;;;5040459;28;20045;-59
2023/04/23 07:20:35;;;;;;;1.48;1.05;;;;;;;;;;5049042;28;20040;-58
2023/04/23 07:23:02;;;;;;;1.55;1.45;;;;;;;;;;5037500;28;20449;-58
2023/04/23 07:25:30;;;;;;;4.22;2.70;;;;;;;;;;5046378;28;20036;-58
2023/04/23 07:27:56;;;;;;;2.95;1.73;;;;;;;;;;5040277;28;20041;-58
2023/04/23 07:30:24;;;;;;;4.03;1.20;;;;;;;;;;5043209;28;20725;-58
2023/04/23 07:32:50;;;;;;;1.30;1.20;;;;;;;;;;5039995;28;20502;-58
2023/04/23 07:35:17;;;;;;;1.30;1.13;;;;;;;;;;5039296;28;20060;-58
2023/04/23 07:37:43;;;;;;;1.42;1.33;;;;;;;;;;5043646;28;20028;-58
2023/04/23 07:40:09;;;;;;;1.30;1.20;;;;;;;;;;5037678;28;20049;-58
2023/04/23 07:42:36;;;;;;;2.55;1.60;;;;;;;;;;5040222;28;20041;-57
2023/04/23 07:45:03;;;;;;;3.70;1.92;;;;;;;;;;5037753;28;20420;-58
2023/04/23 07:47:29;;;;;;;3.72;2.40;;;;;;;;;;5040157;28;20041;-57
2023/04/23 07:49:55;;;;;;;1.42;1.25;;;;;;;;;;5033062;28;20376;-58
2023/04/23 07:52:21;;;;;;;1.20;1.10;;;;;;;;;;5034866;28;20040;-58
2023/04/23 07:54:47;;;;;;;1.45;1.35;;;;;;;;;;5041375;28;20053;-58
2023/04/23 07:57:15;;;;;;;2.78;1.42;;;;;;;;;;5037988;28;20040;-59
2023/04/23 07:59:41;;;;;;;1.20;1.10;;;;;;;;;;5039094;28;20052;-59
2023/04/23 08:02:07;;;;;;;1.83;1.50;;;;;;;;;;5040374;28;20063;-59
2023/04/23 08:04:33;;;;;;;1.73;1.20;;;;;;;;;;5044013;28;20044;-59
2023/04/23 08:06:59;;;;;;;2.10;1.33;;;;;;;;;;5039583;28;20041;-58
2023/04/23 08:09:26;;;;;;;4.13;1.35;;;;;;;;;;5039441;28;20040;-58
2023/04/23 08:11:53;;;;;;;1.85;1.20;;;;;;;;;;5037652;28;20046;-58
2023/04/23 08:14:19;;;;;;;1.40;1.13;;;;;;;;;;5044294;28;20025;-58
2023/04/23 08:16:45;;;;;;;1.00;0.90;;;;;;;;;;5040310;28;20044;-58
2023/04/23 08:19:11;;;;;;;1.15;0.90;;;;;;;;;;5036753;28;20671;-58
2023/04/23 08:21:38;;;;;;;0.80;0.80;;;;;;;;;;5037554;28;20053;-58
2023/04/23 08:24:06;;;;;;;1.80;0.90;;;;;;;;;;5044493;28;20495;-58
2023/04/23 08:26:32;;;;;;;2.35;1.02;;;;;;;;;;5042833;28;20029;-58
2023/04/23 08:29:02;;;;;;;2.15;1.00;;;;;;;;;;5033823;28;20029;-58
2023/04/23 08:31:28;;;;;;;1.25;1.00;;;;;;;;;;5044900;28;20056;-58
2023/04/23 08:33:54;;;;;;;1.92;0.90;;;;;;;;;;5037983;28;20048;-60
2023/04/23 08:36:21;;;;;;;3.00;1.13;;;;;;;;;;5036225;28;20048;-57
2023/04/23 08:38:47;;;;;;;0.82;0.82;;;;;;;;;;5038825;28;20045;-58
2023/04/23 08:41:16;;;;;;;2.22;1.13;;;;;;;;;;5043697;28;20696;-59
2023/04/23 08:43:57;;;;;;;1.40;1.10;;;;;;;;;;5032678;28;20041;-58
2023/04/23 08:46:25;;;;;;;1.58;1.08;;;;;;;;;;5040173;28;20438;-58
2023/04/23 08:48:52;;;;;;;1.98;1.38;;;;;;;;;;5037326;28;20822;-59
2023/04/23 08:51:22;;;;;;;2.17;1.10;;;;;;;;;;5044813;28;20395;-58
2023/04/23 08:53:54;;;;;;;2.30;1.65;;;;;;;;;;5038534;28;20041;-58
2023/04/23 08:56:22;;;;;;;2.55;1.33;;;;;;;;;;5041003;28;20097;-59
2023/04/23 08:58:49;;;;;;;3.13;1.00;;;;;;;;;;5043468;28;20052;-57
2023/04/23 09:01:16;;;;;;;1.98;1.33;;;;;;;;;;5037832;28;20071;-59
2023/04/23 09:03:43;;;;;;;2.67;1.00;;;;;;;;;;5040392;28;20495;-58
2023/04/23 09:06:10;;;;;;;1.63;0.90;;;;;;;;;;5042610;28;20391;-59
2023/04/23 09:08:37;;;;;;;1.17;1.08;;;;;;;;;;5042669;28;20072;-58
2023/04/23 09:11:03;;;;;;;2.05;1.20;;;;;;;;;;5043097;28;20041;-60
2023/04/23 09:13:30;;;;;;;3.92;2.10;;;;;;;;;;5036700;28;20048;-59
2023/04/23 09:15:57;;;;;;;2.78;1.02;;;;;;;;;;5043805;28;20037;-59
2023/04/23 09:18:23;;;;;;;4.85;1.30;;;;;;;;;;5035261;28;20053;-58
2023/04/23 09:20:49;;;;;;;2.85;1.33;;;;;;;;;;5038308;28;20459;-60
2023/04/23 09:23:20;;;;;;;1.27;1.17;;;;;;;;;;5041213;28;20045;-59
2023/04/23 09:25:46;;;;;;;2.35;1.27;;;;;;;;;;5041093;28;20055;-58
2023/04/23 09:28:13;;;;;;;5.10;1.20;;;;;;;;;;5035261;28;20037;-58
2023/04/23 09:30:44;;;;;;;1.10;1.00;;;;;;;;;;5036887;28;20054;-60
2023/04/23 09:33:11;;;;;;;2.10;1.20;;;;;;;;;;5040447;28;20041;-58
2023/04/23 09:35:38;;;;;;;5.65;2.00;;;;;;;;;;5039288;28;20104;-59
2023/04/23 09:38:06;;;;;;;2.72;1.13;;;;;;;;;;5038942;28;20537;-59
2023/04/23 09:40:33;;;;;;;1.70;1.17;;;;;;;;;;5044126;28;20426;-58
2023/04/23 09:43:03;;;;;;;1.30;1.20;;;;;;;;;;5029384;28;20047;-59
2023/04/23 09:45:31;;;;;;;1.40;1.30;;;;;;;;;;5035079;28;20029;-58
2023/04/23 09:47:57;;;;;;;1.75;1.42;;;;;;;;;;5040858;28;20044;-59
2023/04/23 09:50:31;;;;;;;1.83;1.00;;;;;;;;;;5040157;28;20034;-58
2023/04/23 09:52:57;;;;;;;2.35;1.40;;;;;;;;;;5036254;28;20036;-59
2023/04/23 09:55:29;;;;;;;2.88;1.75;;;;;;;;;;5041002;28;20048;-62
2023/04/23 09:57:57;;;;;;;2.13;1.60;;;;;;;;;;5037217;28;20029;-59
2023/04/23 10:00:24;;;;;;;2.22;1.38;;;;;;;;;;5038610;28;20033;-59
2023/04/23 10:02:51;;;;;;;1.40;1.30;;;;;;;;;;5043168;28;20044;-59
2023/04/23 10:05:20;;;;;;;1.90;1.38;;;;;;;;;;5038645;28;20042;-59
2023/04/23 10:07:49;;;;;;;3.97;2.80;;;;;;;;;;5044874;28;20042;-59
2023/04/23 10:10:17;;;;;;;8.23;5.60;;;;;;;;;;5033710;28;20499;-59
2023/04/23 10:12:44;;;;;;;2.08;1.60;;;;;;;;;;5034388;28;20052;-59
2023/04/23 10:15:12;;;;;;;2.30;1.60;;;;;;;;;;5040891;28;20030;-59
2023/04/23 10:17:40;;;;;;;4.10;2.20;;;;;;;;;;5039747;28;20033;-59
2023/04/23 10:20:07;;;;;;;4.15;2.60;;;;;;;;;;5032866;28;20418;-59
2023/04/23 10:22:36;;;;;;;3.65;2.00;;;;;;;;;;5035177;28;21258;-59
2023/04/23 10:25:10;;;;;;;3.42;2.05;;;;;;;;;;5040015;28;20403;-59
2023/04/23 10:27:39;;;;;;;3.17;1.88;;;;;;;;;;5037721;28;20416;-59
2023/04/23 10:30:07;;;;;;;7.90;2.45;;;;;;;;;;5040608;28;20049;-59
2023/04/23 10:32:33;;;;;;;4.57;1.38;;;;;;;;;;5040749;28;20061;-60
2023/04/23 10:35:00;;;;;;;2.15;1.50;;;;;;;;;;5034248;28;20049;-59
2023/04/23 10:37:27;;;;;;;1.50;1.40;;;;;;;;;;5037060;28;20061;-58
2023/04/23 10:39:55;;;;;;;2.60;1.80;;;;;;;;;;5035024;28;20036;-58
2023/04/23 10:42:22;;;;;;;6.85;4.40;;;;;;;;;;5031095;28;20510;-61
2023/04/23 10:44:48;;;;;;;4.40;2.40;;;;;;;;;;5041081;28;20033;-59
2023/04/23 10:47:15;;;;;;;3.25;2.10;;;;;;;;;;5039642;28;20034;-58
2023/04/23 10:49:43;;;;;;;5.22;2.50;;;;;;;;;;5030637;28;20064;-58
2023/04/23 10:52:14;;;;;;;3.45;1.77;;;;;;;;;;5036204;28;20383;-58
2023/04/23 10:54:42;;;;;;;9.45;2.25;;;;;;;;;;5035812;28;20052;-58
2023/04/23 10:57:09;;;;;;;4.13;1.50;;;;;;;;;;5036691;28;20048;-57
2023/04/23 10:59:40;;;;;;;1.40;1.30;;;;;;;;;;5038406;28;20049;-58
2023/04/23 11:02:11;;;;;;;2.78;1.30;;;;;;;;;;5033633;28;20535;-58
2023/04/23 11:04:44;;;;;;;2.17;1.55;;;;;;;;;;5038204;28;20037;-58
2023/04/23 11:07:11;;;;;;;2.85;1.50;;;;;;;;;;5038602;28;20033;-58
2023/04/23 11:09:43;;;;;;;2.67;1.52;;;;;;;;;;5041009;28;20037;-56
2023/04/23 11:12:13;;;;;;;2.95;1.85;;;;;;;;;;5034457;28;20056;-58
2023/04/23 11:14:45;;;;;;;3.67;1.70;;;;;;;;;;5038610;28;20040;-58
2023/04/23 11:17:14;;;;;;;3.58;2.10;;;;;;;;;;5035630;28;20048;-57
2023/04/23 11:19:41;;;;;;;;;;;;;;;;;;5037951;28;20518;-58
2023/04/23 11:22:19;;;;;;;2.35;1.33;;;;;;;;;;5039685;28;19912;-58
2023/04/23 11:24:45;;;;;;;1.40;1.30;;;;;;;;;;5037290;28;20407;-59
2023/04/23 11:27:16;;;;;;;3.45;1.38;;;;;;;;;;5037853;28;20419;-58
2023/04/23 11:29:44;;;;;;;2.80;1.73;;;;;;;;;;5035990;28;20037;-59
2023/04/23 11:32:12;;;;;;;3.85;1.80;;;;;;;;;;5034671;28;20037;-58
2023/04/23 11:34:40;;;;;;;1.50;1.40;;;;;;;;;;5043689;28;20408;-58
2023/04/23 11:37:10;;;;;;;1.83;1.40;;;;;;;;;;5041736;28;20411;-58
2023/04/23 11:39:37;;;;;;;1.85;1.63;;;;;;;;;;5032696;28;20041;-58
2023/04/23 11:42:04;;;;;;;3.15;1.63;;;;;;;;;;5031841;28;20044;-58
2023/04/23 11:44:30;;;;;;;2.85;1.30;;;;;;;;;;5038603;28;20048;-57
2023/04/23 11:47:01;;;;;;;1.98;1.42;;;;;;;;;;5042578;28;20037;-58
2023/04/23 11:49:27;;;;;;;1.67;1.58;;;;;;;;;;5038387;28;20044;-60
2023/04/23 11:51:53;;;;;;;2.30;1.40;;;;;;;;;;5043919;28;20040;-59
2023/04/23 11:54:26;;;;;;;1.55;1.40;;;;;;;;;;5040239;28;20406;-59
2023/04/23 11:56:53;;;;;;;1.20;1.10;;;;;;;;;;5040218;28;20037;-58
2023/04/23 11:59:20;;;;;;;1.67;1.30;;;;;;;;;;5042244;28;20053;-59
2023/04/23 12:01:49;;;;;;;1.08;0.90;;;;;;;;;;5047424;28;20052;-58
2023/04/23 12:04:19;;;;;;;5.78;1.20;;;;;;;;;;5042423;28;20053;-57
2023/04/23 12:06:47;;;;;;;1.80;1.60;;;;;;;;;;5039368;28;20045;-59
2023/04/23 12:09:16;;;;;;;13.40;1.95;;;;;;;;;;5039610;28;20047;-60
2023/04/23 12:11:43;;;;;;;;;;;;;;;;;;5039845;28;20037;-59
2023/04/23 12:14:10;;;;;;;4.15;1.33;;;;;;;;;;5036984;28;19919;-59
2023/04/23 12:16:41;;;;;;;2.90;1.30;;;;;;;;;;5041101;28;20041;-59
2023/04/23 12:19:24;;;;;;;3.78;2.92;;;;;;;;;;5039717;28;20495;-57
2023/04/23 12:21:55;;;;;;;1.38;1.25;;;;;;;;;;5038431;28;20037;-57
2023/04/23 12:24:27;;;;;;;1.77;1.15;;;;;;;;;;5035660;28;20411;-57
2023/04/23 12:26:57;;;;;;;1.52;1.10;;;;;;;;;;5037266;28;20038;-58
2023/04/23 12:29:24;;;;;;;1.85;1.10;;;;;;;;;;5035650;28;20029;-58
2023/04/23 12:31:52;;;;;;;3.25;1.33;;;;;;;;;;5037395;28;20387;-58
2023/04/23 12:34:19;;;;;;;3.22;1.30;;;;;;;;;;5035012;28;20061;-58
2023/04/23 12:36:49;;;;;;;1.40;1.02;;;;;;;;;;5037507;28;20565;-58
2023/04/23 12:39:28;;;;;;;;;;;;;;;;;;5039902;28;20029;-57
2023/04/23 12:42:05;;;;;;;3.90;1.30;;;;;;;;;;5032111;28;20464;-57
2023/04/23 12:44:34;;;;;;;1.52;1.27;;;;;;;;;;5048427;28;20041;-57
2023/04/23 12:47:07;;;;;;;1.95;1.00;;;;;;;;;;5042544;28;20049;-57
2023/04/23 12:49:35;;;;;;;2.47;0.80;;;;;;;;;;5040336;28;20380;-57
2023/04/23 12:52:03;;;;;;;1.88;1.00;;;;;;;;;;5040850;28;20056;-58
2023/04/23 12:54:31;;;;;;;1.38;1.00;;;;;;;;;;5039556;28;20064;-59
2023/04/23 12:57:00;;;;;;;1.73;0.90;;;;;;;;;;5037629;28;20665;-58
2023/04/23 12:59:27;;;;;;;2.60;1.20;;;;;;;;;;5040691;28;20060;-58
2023/04/23 13:01:54;;;;;;;1.80;1.35;;;;;;;;;;5044038;28;20036;-59
2023/04/23 13:04:20;;;;;;;3.35;1.23;;;;;;;;;;5040437;28;20070;-58
2023/04/23 13:06:47;;;;;;;1.73;1.10;;;;;;;;;;5044681;28;20486;-58
2023/04/23 13:09:15;;;;;;;1.65;1.10;;;;;;;;;;5038309;28;20032;-59
2023/04/23 13:11:42;;;;;;;2.92;1.27;;;;;;;;;;5036052;28;20064;-57
2023/04/23 13:14:08;;;;;;;2.95;1.30;;;;;;;;;;5037501;28;20032;-58
2023/04/23 13:16:35;;;;;;;2.60;1.20;;;;;;;;;;5044844;28;20049;-58
2023/04/23 13:19:01;;;;;;;2.55;1.50;;;;;;;;;;5036448;28;20025;-58
2023/04/23 13:21:27;;;;;;;1.50;1.20;;;;;;;;;;5040942;28;20037;-58
2023/04/23 13:23:53;;;;;;;3.17;1.63;;;;;;;;;;5039368;28;20025;-58
2023/04/23 13:26:20;;;;;;;1.75;1.42;;;;;;;;;;5042825;28;20033;-58
2023/04/23 13:28:46;;;;;;;2.95;1.70;;;;;;;;;;5040059;28;20503;-59
2023/04/23 13:31:12;;;;;;;1.75;1.10;;;;;;;;;;5039515;28;20509;-58
2023/04/23 13:33:39;;;;;;;1.35;1.13;;;;;;;;;;5040260;28;20041;-58
2023/04/23 13:36:06;;;;;;;1.80;1.25;;;;;;;;;;5033465;28;20025;-58
2023/04/23 13:38:33;;;;;;;7.00;4.57;;;;;;;;;;5032309;28;20034;-58
2023/04/23 13:40:59;;;;;;;3.05;2.10;;;;;;;;;;5038125;28;20045;-58
2023/04/23 13:43:25;;;;;;;2.42;1.33;;;;;;;;;;5032876;28;20059;-57
2023/04/23 13:45:53;;;;;;;2.40;1.10;;;;;;;;;;5033919;28;20029;-57
2023/04/23 13:48:20;;;;;;;1.73;1.30;;;;;;;;;;5038068;28;20513;-58
2023/04/23 13:50:46;;;;;;;3.22;1.63;;;;;;;;;;5033642;28;20040;-58
2023/04/23 13:53:12;;;;;;;3.22;1.30;;;;;;;;;;5023317;28;20471;-59
2023/04/23 13:55:39;;;;;;;2.95;1.63;;;;;;;;;;5040461;28;20052;-57
2023/04/23 13:58:06;;;;;;;5.22;2.85;;;;;;;;;;5033208;28;20049;-57
2023/04/23 14:00:32;;;;;;;3.70;1.35;;;;;;;;;;5029025;28;20048;-58
2023/04/23 14:02:58;;;;;;;2.78;1.38;;;;;;;;;;5034601;28;20037;-58
2023/04/23 14:05:25;;;;;;;1.90;1.30;;;;;;;;;;5034246;28;20036;-58
2023/04/23 14:07:51;;;;;;;3.55;1.48;;;;;;;;;;5039555;28;20036;-58
2023/04/23 14:10:17;;;;;;;3.22;1.40;;;;;;;;;;5039075;28;20037;-57
2023/04/23 14:12:45;;;;;;;2.92;1.63;;;;;;;;;;5038012;28;20037;-58
2023/04/23 14:15:11;;;;;;;4.03;1.65;;;;;;;;;;5032238;28;20521;-58
2023/04/23 14:17:39;;;;;;;3.35;1.90;;;;;;;;;;5037836;28;20041;-58
2023/04/23 14:20:06;;;;;;;3.83;1.70;;;;;;;;;;5041078;28;20068;-59
2023/04/23 14:22:33;;;;;;;2.60;1.77;;;;;;;;;;5035296;28;20036;-59
2023/04/23 14:25:22;;;;;;;3.63;1.63;;;;;;;;;;5040509;28;20044;-59
2023/04/23 14:27:50;;;;;;;3.28;1.50;;;;;;;;;;5036497;28;20422;-62
2023/04/23 14:30:19;;;;;;;2.47;1.35;;;;;;;;;;5035550;28;20417;-62
2023/04/23 14:32:46;;;;;;;2.55;1.73;;;;;;;;;;5042654;28;20040;-62
2023/04/23 14:35:13;;;;;;;4.00;1.38;;;;;;;;;;5038068;28;20029;-63
2023/04/23 14:37:43;;;;;;;8.73;1.80;;;;;;;;;;5034976;28;20487;-63
2023/04/23 14:40:18;;;;;;;7.22;2.10;;;;;;;;;;5036717;28;20037;-62
2023/04/23 14:42:45;;;;;;;15.07;1.70;;;;;;;;;;5040280;28;20060;-63
2023/04/23 14:45:12;;;;;;;3.80;1.50;;;;;;;;;;5035199;28;20040;-60